createdAt,value
2019-05-07T00:04:56.000Z,1011.749
2019-05-07T00:14:58.000Z,1011.721
2019-05-07T00:24:56.000Z,1011.631
2019-05-07T00:34:56.000Z,1011.601
2019-05-07T00:44:56.000Z,1011.623
2019-05-07T00:54:56.000Z,1011.611
2019-05-07T01:04:56.000Z,1011.665
2019-05-07T01:14:56.000Z,1011.627
2019-05-07T01:24:57.000Z,1011.597
2019-05-07T01:34:57.000Z,1011.623
2019-05-07T01:55:00.000Z,1011.665
2019-05-07T02:04:57.000Z,1011.605
2019-05-07T02:14:57.000Z,1011.623
2019-05-07T02:24:57.000Z,1011.609
2019-05-07T02:34:57.000Z,1011.569
2019-05-07T02:44:57.000Z,1011.615
2019-05-07T02:54:57.000Z,1011.608
2019-05-07T03:04:57.000Z,1011.622
2019-05-07T03:14:57.000Z,1011.613
2019-05-07T03:24:57.000Z,1011.537
2019-05-07T03:34:57.000Z,1011.506
2019-05-07T03:44:58.000Z,1011.443
2019-05-07T03:54:57.000Z,1011.508
2019-05-07T04:04:57.000Z,1011.56
2019-05-07T04:14:57.000Z,1011.577
2019-05-07T04:25:01.000Z,1011.64
2019-05-07T04:34:57.000Z,1011.645
2019-05-07T04:44:57.000Z,1011.678
2019-05-07T04:54:57.000Z,1011.644
2019-05-07T05:04:57.000Z,1011.606
2019-05-07T05:14:57.000Z,1011.649
2019-05-07T05:24:57.000Z,1011.658
2019-05-07T05:34:58.000Z,1011.667
2019-05-07T05:44:57.000Z,1011.637
2019-05-07T05:54:57.000Z,1011.641
2019-05-07T06:05:01.000Z,1011.574
2019-05-07T06:14:57.000Z,1011.593
2019-05-07T06:34:57.000Z,1011.591
2019-05-07T06:44:57.000Z,1011.643
2019-05-07T06:54:58.000Z,1011.629
2019-05-07T07:04:57.000Z,1011.629
2019-05-07T07:14:59.000Z,1011.643
2019-05-07T07:24:57.000Z,1011.599
2019-05-07T07:34:57.000Z,1011.508
2019-05-07T07:44:57.000Z,1011.502
2019-05-07T07:54:58.000Z,1011.468
2019-05-07T08:04:57.000Z,1011.452
2019-05-07T08:15:01.000Z,1011.406
2019-05-07T08:24:57.000Z,1011.327
2019-05-07T08:34:57.000Z,1011.295
2019-05-07T08:54:57.000Z,1011.262
2019-05-07T09:04:57.000Z,1011.211
2019-05-07T09:14:57.000Z,1011.137
2019-05-07T09:24:57.000Z,1011.051
2019-05-07T09:34:57.000Z,1011.056
2019-05-07T09:44:57.000Z,1010.911
2019-05-07T09:54:57.000Z,1010.794
2019-05-07T10:04:59.000Z,1010.71
2019-05-07T10:14:59.000Z,1010.671
2019-05-07T10:24:58.000Z,1010.606
2019-05-07T10:35:00.000Z,1010.555
2019-05-07T10:44:58.000Z,1010.469
2019-05-07T10:54:58.000Z,1010.366
2019-05-07T11:04:58.000Z,1010.324
2019-05-07T11:14:58.000Z,1010.236
2019-05-07T11:24:58.000Z,1010.136
2019-05-07T11:34:58.000Z,1010.045
2019-05-07T11:44:59.000Z,1009.964
2019-05-07T11:54:58.000Z,1009.885
2019-05-07T12:05:01.000Z,1009.788
2019-05-07T12:14:58.000Z,1009.698
2019-05-07T12:24:58.000Z,1009.566
2019-05-07T12:34:58.000Z,1009.46
2019-05-07T12:44:58.000Z,1009.337
2019-05-07T12:54:58.000Z,1009.239
2019-05-07T13:04:58.000Z,1009.137
2019-05-07T13:14:58.000Z,1009.093
2019-05-07T13:24:59.000Z,1009.156
2019-05-07T13:35:01.000Z,1009.093
2019-05-07T13:44:58.000Z,1008.986
2019-05-07T13:54:59.000Z,1008.865
2019-05-07T14:04:58.000Z,1008.774
2019-05-07T14:14:58.000Z,1008.703
2019-05-07T14:25:00.000Z,1008.632
2019-05-07T14:34:58.000Z,1008.572
2019-05-07T14:44:58.000Z,1008.688
2019-05-07T14:54:58.000Z,1008.821
2019-05-07T15:04:58.000Z,1008.727
2019-05-07T15:14:58.000Z,1008.644
2019-05-07T15:24:58.000Z,1008.424
2019-05-07T15:34:58.000Z,1008.274
2019-05-07T15:44:58.000Z,1008.191
2019-05-07T15:54:59.000Z,1008.011
2019-05-07T16:04:58.000Z,1007.867
2019-05-07T16:14:59.000Z,1007.82
2019-05-07T16:24:58.000Z,1007.726
2019-05-07T16:34:58.000Z,1007.623
2019-05-07T16:44:58.000Z,1007.502
2019-05-07T16:54:58.000Z,1007.403
2019-05-07T17:04:58.000Z,1007.34
2019-05-07T17:14:58.000Z,1007.272
2019-05-07T17:24:59.000Z,1007.222
2019-05-07T17:34:58.000Z,1007.18
2019-05-07T17:44:58.000Z,1007.17
2019-05-07T17:54:58.000Z,1007.182
2019-05-07T18:04:58.000Z,1007.119
2019-05-07T18:14:59.000Z,1006.998
2019-05-07T18:24:59.000Z,1006.997
2019-05-07T18:34:59.000Z,1006.984
2019-05-07T18:44:59.000Z,1006.924
2019-05-07T18:55:00.000Z,1006.911
2019-05-07T19:04:59.000Z,1006.917
2019-05-07T19:24:59.000Z,1006.908
2019-05-07T19:34:59.000Z,1006.909
2019-05-07T19:44:59.000Z,1006.898
2019-05-07T19:54:59.000Z,1006.839
2019-05-07T20:04:59.000Z,1006.765
2019-05-07T20:15:00.000Z,1006.696
2019-05-07T20:24:59.000Z,1006.643
2019-05-07T20:34:59.000Z,1006.574
2019-05-07T20:44:59.000Z,1006.484
2019-05-07T20:54:59.000Z,1006.368
2019-05-07T21:04:59.000Z,1006.19
2019-05-07T21:14:59.000Z,1005.995
2019-05-07T21:24:59.000Z,1005.754
2019-05-07T21:34:59.000Z,1005.773
2019-05-07T21:44:59.000Z,1005.816
2019-05-07T22:04:59.000Z,1005.652
2019-05-07T22:14:59.000Z,1005.509
2019-05-07T22:24:59.000Z,1005.411
2019-05-07T22:34:59.000Z,1005.319
2019-05-07T22:44:59.000Z,1005.102
2019-05-07T22:55:00.000Z,1004.912
2019-05-07T23:04:59.000Z,1004.75
2019-05-07T23:24:59.000Z,1004.637
2019-05-07T23:35:00.000Z,1004.544
2019-05-07T23:45:00.000Z,1004.394
2019-05-07T23:54:59.000Z,1004.242
